sensor_id;sensor_type;location;lat;lon;timestamp;P1;durP1;ratioP1;P2;durP2;ratioP2
17404;SDS011;8820;54.604;18.226;2024-02-15T00:00:22;28.67;;;19.00;;
17404;SDS011;8820;54.604;18.226;2024-02-15T00:02:53;28.80;;;19.50;;
17404;SDS011;8820;54.604;18.226;2024-02-15T00:05:24;31.83;;;19.63;;
17404;SDS011;8820;54.604;18.226;2024-02-15T00:07:53;34.33;;;20.30;;
17404;SDS011;8820;54.604;18.226;2024-02-15T00:10:21;33.57;;;20.70;;
17404;SDS011;8820;54.604;18.226;2024-02-15T00:12:51;27.13;;;19.53;;
17404;SDS011;8820;54.604;18.226;2024-02-15T00:15:19;31.70;;;19.60;;
17404;SDS011;8820;54.604;18.226;2024-02-15T00:17:49;31.00;;;19.03;;
17404;SDS011;8820;54.604;18.226;2024-02-15T00:20:18;30.20;;;19.80;;
17404;SDS011;8820;54.604;18.226;2024-02-15T00:22:46;34.30;;;21.57;;
17404;SDS011;8820;54.604;18.226;2024-02-15T00:25:15;32.10;;;19.83;;
17404;SDS011;8820;54.604;18.226;2024-02-15T00:27:44;33.97;;;21.33;;
17404;SDS011;8820;54.604;18.226;2024-02-15T00:30:12;28.20;;;18.60;;
17404;SDS011;8820;54.604;18.226;2024-02-15T00:32:43;29.63;;;19.57;;
17404;SDS011;8820;54.604;18.226;2024-02-15T00:35:14;30.97;;;19.70;;
17404;SDS011;8820;54.604;18.226;2024-02-15T00:37:42;34.00;;;20.77;;
17404;SDS011;8820;54.604;18.226;2024-02-15T00:40:11;31.47;;;20.40;;
17404;SDS011;8820;54.604;18.226;2024-02-15T00:42:39;32.83;;;19.83;;
17404;SDS011;8820;54.604;18.226;2024-02-15T00:45:07;34.13;;;19.83;;
17404;SDS011;8820;54.604;18.226;2024-02-15T00:47:36;30.80;;;18.30;;
17404;SDS011;8820;54.604;18.226;2024-02-15T00:50:05;29.30;;;19.70;;
17404;SDS011;8820;54.604;18.226;2024-02-15T00:52:35;26.27;;;18.20;;
17404;SDS011;8820;54.604;18.226;2024-02-15T00:55:04;27.80;;;19.13;;
17404;SDS011;8820;54.604;18.226;2024-02-15T00:57:32;28.43;;;20.30;;
17404;SDS011;8820;54.604;18.226;2024-02-15T01:00:01;29.23;;;19.80;;
17404;SDS011;8820;54.604;18.226;2024-02-15T01:02:30;30.87;;;20.40;;
17404;SDS011;8820;54.604;18.226;2024-02-15T01:04:58;31.03;;;19.33;;
17404;SDS011;8820;54.604;18.226;2024-02-15T01:07:27;31.10;;;19.77;;
17404;SDS011;8820;54.604;18.226;2024-02-15T01:09:56;35.60;;;19.90;;
17404;SDS011;8820;54.604;18.226;2024-02-15T01:12:25;31.50;;;18.93;;
17404;SDS011;8820;54.604;18.226;2024-02-15T01:14:54;32.27;;;20.50;;
17404;SDS011;8820;54.604;18.226;2024-02-15T01:17:22;28.97;;;18.83;;
17404;SDS011;8820;54.604;18.226;2024-02-15T01:19:51;32.70;;;20.53;;
17404;SDS011;8820;54.604;18.226;2024-02-15T01:22:19;31.43;;;20.00;;
17404;SDS011;8820;54.604;18.226;2024-02-15T01:24:50;28.17;;;17.73;;
17404;SDS011;8820;54.604;18.226;2024-02-15T01:27:19;31.70;;;20.27;;
17404;SDS011;8820;54.604;18.226;2024-02-15T01:29:48;29.17;;;19.30;;
17404;SDS011;8820;54.604;18.226;2024-02-15T01:32:16;28.53;;;18.80;;
17404;SDS011;8820;54.604;18.226;2024-02-15T01:34:44;31.53;;;19.27;;
17404;SDS011;8820;54.604;18.226;2024-02-15T01:37:12;29.87;;;18.87;;
17404;SDS011;8820;54.604;18.226;2024-02-15T01:39:41;29.87;;;19.10;;
17404;SDS011;8820;54.604;18.226;2024-02-15T01:42:09;29.20;;;18.27;;
17404;SDS011;8820;54.604;18.226;2024-02-15T01:44:39;28.97;;;19.27;;
17404;SDS011;8820;54.604;18.226;2024-02-15T01:47:07;28.70;;;19.27;;
17404;SDS011;8820;54.604;18.226;2024-02-15T01:49:35;29.03;;;18.20;;
17404;SDS011;8820;54.604;18.226;2024-02-15T01:52:04;27.90;;;18.50;;
17404;SDS011;8820;54.604;18.226;2024-02-15T01:54:35;31.97;;;19.43;;
17404;SDS011;8820;54.604;18.226;2024-02-15T01:57:05;32.87;;;20.00;;
17404;SDS011;8820;54.604;18.226;2024-02-15T01:59:34;29.63;;;18.73;;
17404;SDS011;8820;54.604;18.226;2024-02-15T02:02:05;31.70;;;18.93;;
17404;SDS011;8820;54.604;18.226;2024-02-15T02:04:38;25.97;;;16.80;;
17404;SDS011;8820;54.604;18.226;2024-02-15T02:07:08;25.63;;;17.57;;
17404;SDS011;8820;54.604;18.226;2024-02-15T02:09:37;27.27;;;16.77;;
17404;SDS011;8820;54.604;18.226;2024-02-15T02:12:06;24.77;;;17.07;;
17404;SDS011;8820;54.604;18.226;2024-02-15T02:14:34;30.03;;;17.70;;
17404;SDS011;8820;54.604;18.226;2024-02-15T02:17:13;25.83;;;17.13;;
17404;SDS011;8820;54.604;18.226;2024-02-15T02:19:42;25.40;;;17.17;;
17404;SDS011;8820;54.604;18.226;2024-02-15T02:22:10;28.27;;;17.83;;
17404;SDS011;8820;54.604;18.226;2024-02-15T02:24:40;23.77;;;16.73;;
17404;SDS011;8820;54.604;18.226;2024-02-15T02:27:22;24.40;;;15.77;;
17404;SDS011;8820;54.604;18.226;2024-02-15T02:29:51;23.23;;;16.60;;
17404;SDS011;8820;54.604;18.226;2024-02-15T02:32:19;25.03;;;16.73;;
17404;SDS011;8820;54.604;18.226;2024-02-15T02:34:47;25.97;;;16.57;;
17404;SDS011;8820;54.604;18.226;2024-02-15T02:37:16;23.33;;;15.63;;
17404;SDS011;8820;54.604;18.226;2024-02-15T02:39:44;24.67;;;16.13;;
17404;SDS011;8820;54.604;18.226;2024-02-15T02:42:13;24.07;;;16.97;;
17404;SDS011;8820;54.604;18.226;2024-02-15T02:44:42;53.27;;;35.37;;
17404;SDS011;8820;54.604;18.226;2024-02-15T02:47:11;24.10;;;17.07;;
17404;SDS011;8820;54.604;18.226;2024-02-15T02:49:40;23.53;;;15.93;;
17404;SDS011;8820;54.604;18.226;2024-02-15T02:52:08;23.57;;;15.97;;
17404;SDS011;8820;54.604;18.226;2024-02-15T02:54:37;24.30;;;14.83;;
17404;SDS011;8820;54.604;18.226;2024-02-15T02:57:05;22.00;;;14.90;;
17404;SDS011;8820;54.604;18.226;2024-02-15T02:59:35;22.47;;;15.73;;
17404;SDS011;8820;54.604;18.226;2024-02-15T03:02:06;19.30;;;14.17;;
17404;SDS011;8820;54.604;18.226;2024-02-15T03:04:35;18.97;;;14.50;;
17404;SDS011;8820;54.604;18.226;2024-02-15T03:07:05;20.43;;;14.20;;
17404;SDS011;8820;54.604;18.226;2024-02-15T03:09:33;18.07;;;13.03;;
17404;SDS011;8820;54.604;18.226;2024-02-15T03:12:04;21.17;;;13.97;;
17404;SDS011;8820;54.604;18.226;2024-02-15T03:14:32;22.87;;;15.53;;
17404;SDS011;8820;54.604;18.226;2024-02-15T03:17:02;18.57;;;13.07;;
17404;SDS011;8820;54.604;18.226;2024-02-15T03:19:30;20.57;;;13.00;;
17404;SDS011;8820;54.604;18.226;2024-02-15T03:21:59;19.53;;;13.00;;
17404;SDS011;8820;54.604;18.226;2024-02-15T03:24:27;18.27;;;13.17;;
17404;SDS011;8820;54.604;18.226;2024-02-15T03:26:55;19.07;;;13.87;;
17404;SDS011;8820;54.604;18.226;2024-02-15T03:29:24;17.03;;;12.27;;
17404;SDS011;8820;54.604;18.226;2024-02-15T03:31:53;17.00;;;13.00;;
17404;SDS011;8820;54.604;18.226;2024-02-15T03:34:22;18.37;;;11.93;;
17404;SDS011;8820;54.604;18.226;2024-02-15T03:36:51;18.83;;;12.57;;
17404;SDS011;8820;54.604;18.226;2024-02-15T03:39:20;16.93;;;12.47;;
17404;SDS011;8820;54.604;18.226;2024-02-15T03:41:50;17.87;;;12.13;;
17404;SDS011;8820;54.604;18.226;2024-02-15T03:44:20;16.17;;;12.40;;
17404;SDS011;8820;54.604;18.226;2024-02-15T03:46:48;17.07;;;12.30;;
17404;SDS011;8820;54.604;18.226;2024-02-15T03:49:19;15.40;;;11.77;;
17404;SDS011;8820;54.604;18.226;2024-02-15T03:51:49;14.90;;;11.10;;
17404;SDS011;8820;54.604;18.226;2024-02-15T03:54:17;17.33;;;11.83;;
17404;SDS011;8820;54.604;18.226;2024-02-15T03:56:46;17.23;;;11.30;;
17404;SDS011;8820;54.604;18.226;2024-02-15T03:59:18;15.87;;;12.10;;
17404;SDS011;8820;54.604;18.226;2024-02-15T04:01:51;12.97;;;10.17;;
17404;SDS011;8820;54.604;18.226;2024-02-15T04:04:21;13.23;;;9.93;;
17404;SDS011;8820;54.604;18.226;2024-02-15T04:06:50;14.10;;;11.10;;
17404;SDS011;8820;54.604;18.226;2024-02-15T04:09:19;15.27;;;11.47;;
17404;SDS011;8820;54.604;18.226;2024-02-15T04:11:48;16.07;;;11.20;;
17404;SDS011;8820;54.604;18.226;2024-02-15T04:14:19;12.70;;;10.30;;
17404;SDS011;8820;54.604;18.226;2024-02-15T04:16:48;15.63;;;10.83;;
17404;SDS011;8820;54.604;18.226;2024-02-15T04:19:16;18.10;;;11.47;;
17404;SDS011;8820;54.604;18.226;2024-02-15T04:21:47;14.27;;;10.67;;
17404;SDS011;8820;54.604;18.226;2024-02-15T04:24:17;15.87;;;11.17;;
17404;SDS011;8820;54.604;18.226;2024-02-15T04:26:46;14.40;;;10.63;;
17404;SDS011;8820;54.604;18.226;2024-02-15T04:29:15;13.73;;;10.40;;
17404;SDS011;8820;54.604;18.226;2024-02-15T04:31:44;14.50;;;9.77;;
17404;SDS011;8820;54.604;18.226;2024-02-15T04:34:15;15.53;;;11.20;;
17404;SDS011;8820;54.604;18.226;2024-02-15T04:36:46;13.17;;;10.03;;
17404;SDS011;8820;54.604;18.226;2024-02-15T04:39:17;16.70;;;10.70;;
17404;SDS011;8820;54.604;18.226;2024-02-15T04:41:50;12.23;;;10.33;;
17404;SDS011;8820;54.604;18.226;2024-02-15T04:44:19;14.00;;;10.43;;
17404;SDS011;8820;54.604;18.226;2024-02-15T04:46:48;11.57;;;9.77;;
17404;SDS011;8820;54.604;18.226;2024-02-15T04:49:16;15.23;;;10.33;;
17404;SDS011;8820;54.604;18.226;2024-02-15T04:51:45;14.03;;;10.37;;
17404;SDS011;8820;54.604;18.226;2024-02-15T04:54:15;12.07;;;9.40;;
17404;SDS011;8820;54.604;18.226;2024-02-15T04:56:44;14.27;;;9.67;;
17404;SDS011;8820;54.604;18.226;2024-02-15T04:59:13;11.10;;;8.67;;
17404;SDS011;8820;54.604;18.226;2024-02-15T05:01:42;12.73;;;9.20;;
17404;SDS011;8820;54.604;18.226;2024-02-15T05:04:11;11.87;;;8.83;;
17404;SDS011;8820;54.604;18.226;2024-02-15T05:06:40;13.17;;;9.43;;
17404;SDS011;8820;54.604;18.226;2024-02-15T05:09:08;10.47;;;9.17;;
17404;SDS011;8820;54.604;18.226;2024-02-15T05:11:39;10.07;;;8.40;;
17404;SDS011;8820;54.604;18.226;2024-02-15T05:14:08;11.33;;;9.00;;
17404;SDS011;8820;54.604;18.226;2024-02-15T05:16:37;10.83;;;8.37;;
17404;SDS011;8820;54.604;18.226;2024-02-15T05:19:08;10.33;;;8.83;;
17404;SDS011;8820;54.604;18.226;2024-02-15T05:21:39;9.57;;;8.57;;
17404;SDS011;8820;54.604;18.226;2024-02-15T05:24:07;11.43;;;8.87;;
17404;SDS011;8820;54.604;18.226;2024-02-15T05:26:35;12.70;;;7.67;;
17404;SDS011;8820;54.604;18.226;2024-02-15T05:29:05;10.87;;;8.37;;
17404;SDS011;8820;54.604;18.226;2024-02-15T05:31:33;10.83;;;9.40;;
17404;SDS011;8820;54.604;18.226;2024-02-15T05:34:04;11.50;;;9.27;;
17404;SDS011;8820;54.604;18.226;2024-02-15T05:36:34;11.03;;;9.13;;
17404;SDS011;8820;54.604;18.226;2024-02-15T05:39:02;13.47;;;8.93;;
17404;SDS011;8820;54.604;18.226;2024-02-15T05:41:31;10.33;;;8.60;;
17404;SDS011;8820;54.604;18.226;2024-02-15T05:44:00;10.70;;;8.17;;
17404;SDS011;8820;54.604;18.226;2024-02-15T05:46:32;11.20;;;9.77;;
17404;SDS011;8820;54.604;18.226;2024-02-15T05:49:03;10.07;;;8.63;;
17404;SDS011;8820;54.604;18.226;2024-02-15T05:51:32;11.50;;;8.57;;
17404;SDS011;8820;54.604;18.226;2024-02-15T05:54:00;10.93;;;8.67;;
17404;SDS011;8820;54.604;18.226;2024-02-15T05:56:29;11.90;;;9.47;;
17404;SDS011;8820;54.604;18.226;2024-02-15T05:58:57;11.00;;;8.83;;
17404;SDS011;8820;54.604;18.226;2024-02-15T06:01:25;12.47;;;8.97;;
17404;SDS011;8820;54.604;18.226;2024-02-15T06:03:57;11.93;;;8.43;;
17404;SDS011;8820;54.604;18.226;2024-02-15T06:06:27;11.83;;;8.90;;
17404;SDS011;8820;54.604;18.226;2024-02-15T06:08:55;12.00;;;9.00;;
17404;SDS011;8820;54.604;18.226;2024-02-15T06:11:26;11.43;;;8.87;;
17404;SDS011;8820;54.604;18.226;2024-02-15T06:13:55;10.63;;;9.10;;
17404;SDS011;8820;54.604;18.226;2024-02-15T06:16:23;9.00;;;8.00;;
17404;SDS011;8820;54.604;18.226;2024-02-15T06:18:51;11.43;;;7.93;;
17404;SDS011;8820;54.604;18.226;2024-02-15T06:21:22;12.20;;;8.87;;
17404;SDS011;8820;54.604;18.226;2024-02-15T06:23:51;10.67;;;8.17;;
17404;SDS011;8820;54.604;18.226;2024-02-15T06:26:19;10.23;;;8.80;;
17404;SDS011;8820;54.604;18.226;2024-02-15T06:28:48;10.40;;;7.73;;
17404;SDS011;8820;54.604;18.226;2024-02-15T06:31:41;9.57;;;7.53;;
17404;SDS011;8820;54.604;18.226;2024-02-15T06:34:27;10.13;;;7.27;;
17404;SDS011;8820;54.604;18.226;2024-02-15T06:37:22;8.27;;;6.47;;
17404;SDS011;8820;54.604;18.226;2024-02-15T06:40:20;9.10;;;7.03;;
17404;SDS011;8820;54.604;18.226;2024-02-15T06:42:49;9.80;;;6.90;;
17404;SDS011;8820;54.604;18.226;2024-02-15T06:45:18;9.20;;;7.70;;
17404;SDS011;8820;54.604;18.226;2024-02-15T06:47:46;9.77;;;7.30;;
17404;SDS011;8820;54.604;18.226;2024-02-15T06:50:14;10.23;;;6.97;;
17404;SDS011;8820;54.604;18.226;2024-02-15T06:52:45;8.43;;;7.17;;
17404;SDS011;8820;54.604;18.226;2024-02-15T06:55:15;7.03;;;6.33;;
17404;SDS011;8820;54.604;18.226;2024-02-15T06:57:45;8.07;;;6.63;;
17404;SDS011;8820;54.604;18.226;2024-02-15T07:00:14;8.07;;;6.90;;
17404;SDS011;8820;54.604;18.226;2024-02-15T07:02:45;8.17;;;7.37;;
17404;SDS011;8820;54.604;18.226;2024-02-15T07:05:12;7.67;;;6.87;;
17404;SDS011;8820;54.604;18.226;2024-02-15T07:07:40;7.30;;;6.47;;
17404;SDS011;8820;54.604;18.226;2024-02-15T07:10:10;10.83;;;8.13;;
17404;SDS011;8820;54.604;18.226;2024-02-15T07:12:39;10.43;;;7.37;;
17404;SDS011;8820;54.604;18.226;2024-02-15T07:15:10;7.60;;;6.90;;
17404;SDS011;8820;54.604;18.226;2024-02-15T07:17:38;8.57;;;7.27;;
17404;SDS011;8820;54.604;18.226;2024-02-15T07:20:07;7.77;;;6.97;;
17404;SDS011;8820;54.604;18.226;2024-02-15T07:22:37;26.60;;;18.33;;
17404;SDS011;8820;54.604;18.226;2024-02-15T07:25:06;14.47;;;11.60;;
17404;SDS011;8820;54.604;18.226;2024-02-15T07:27:36;23.33;;;16.60;;
17404;SDS011;8820;54.604;18.226;2024-02-15T07:30:06;9.83;;;8.37;;
17404;SDS011;8820;54.604;18.226;2024-02-15T07:32:35;11.37;;;8.63;;
17404;SDS011;8820;54.604;18.226;2024-02-15T07:35:04;9.67;;;8.43;;
17404;SDS011;8820;54.604;18.226;2024-02-15T07:37:34;9.30;;;7.73;;
17404;SDS011;8820;54.604;18.226;2024-02-15T07:40:03;12.73;;;10.40;;
17404;SDS011;8820;54.604;18.226;2024-02-15T07:42:34;10.10;;;6.77;;
17404;SDS011;8820;54.604;18.226;2024-02-15T07:45:05;24.37;;;17.90;;
17404;SDS011;8820;54.604;18.226;2024-02-15T07:47:34;15.73;;;11.93;;
17404;SDS011;8820;54.604;18.226;2024-02-15T07:50:02;11.07;;;9.90;;
17404;SDS011;8820;54.604;18.226;2024-02-15T07:52:32;22.03;;;15.23;;
17404;SDS011;8820;54.604;18.226;2024-02-15T07:55:00;11.20;;;8.43;;
17404;SDS011;8820;54.604;18.226;2024-02-15T07:57:36;12.20;;;9.13;;
17404;SDS011;8820;54.604;18.226;2024-02-15T08:00:05;9.13;;;7.97;;
17404;SDS011;8820;54.604;18.226;2024-02-15T08:02:37;17.83;;;12.57;;
17404;SDS011;8820;54.604;18.226;2024-02-15T08:05:09;9.37;;;8.33;;
17404;SDS011;8820;54.604;18.226;2024-02-15T08:07:40;11.70;;;8.43;;
17404;SDS011;8820;54.604;18.226;2024-02-15T08:10:10;9.40;;;8.37;;
17404;SDS011;8820;54.604;18.226;2024-02-15T08:12:42;14.27;;;10.00;;
17404;SDS011;8820;54.604;18.226;2024-02-15T08:15:11;16.67;;;11.83;;
17404;SDS011;8820;54.604;18.226;2024-02-15T08:17:40;15.20;;;8.87;;
17404;SDS011;8820;54.604;18.226;2024-02-15T08:20:10;15.00;;;8.70;;
17404;SDS011;8820;54.604;18.226;2024-02-15T08:22:39;12.00;;;9.23;;
17404;SDS011;8820;54.604;18.226;2024-02-15T08:25:08;11.50;;;8.53;;
17404;SDS011;8820;54.604;18.226;2024-02-15T08:27:38;15.23;;;9.93;;
17404;SDS011;8820;54.604;18.226;2024-02-15T08:30:11;11.53;;;9.00;;
17404;SDS011;8820;54.604;18.226;2024-02-15T08:32:40;12.17;;;8.90;;
17404;SDS011;8820;54.604;18.226;2024-02-15T08:35:09;11.10;;;8.70;;
17404;SDS011;8820;54.604;18.226;2024-02-15T08:37:38;14.63;;;9.57;;
17404;SDS011;8820;54.604;18.226;2024-02-15T08:40:08;13.10;;;9.10;;
17404;SDS011;8820;54.604;18.226;2024-02-15T08:42:38;11.47;;;9.10;;
17404;SDS011;8820;54.604;18.226;2024-02-15T08:45:07;11.67;;;8.80;;
17404;SDS011;8820;54.604;18.226;2024-02-15T08:47:38;12.97;;;9.20;;
17404;SDS011;8820;54.604;18.226;2024-02-15T08:50:08;14.03;;;9.37;;
17404;SDS011;8820;54.604;18.226;2024-02-15T08:52:37;11.30;;;8.87;;
17404;SDS011;8820;54.604;18.226;2024-02-15T08:55:07;9.93;;;8.63;;
17404;SDS011;8820;54.604;18.226;2024-02-15T08:57:36;10.63;;;8.40;;
17404;SDS011;8820;54.604;18.226;2024-02-15T09:00:07;13.47;;;9.57;;
17404;SDS011;8820;54.604;18.226;2024-02-15T09:02:41;10.97;;;8.13;;
17404;SDS011;8820;54.604;18.226;2024-02-15T09:05:10;11.07;;;8.80;;
17404;SDS011;8820;54.604;18.226;2024-02-15T09:07:40;12.97;;;9.37;;
17404;SDS011;8820;54.604;18.226;2024-02-15T09:10:09;11.57;;;8.73;;
17404;SDS011;8820;54.604;18.226;2024-02-15T09:12:38;12.23;;;9.37;;
17404;SDS011;8820;54.604;18.226;2024-02-15T09:15:08;11.40;;;9.37;;
17404;SDS011;8820;54.604;18.226;2024-02-15T09:17:37;10.93;;;8.67;;
17404;SDS011;8820;54.604;18.226;2024-02-15T09:20:08;11.50;;;9.03;;
17404;SDS011;8820;54.604;18.226;2024-02-15T09:22:41;11.40;;;9.13;;
17404;SDS011;8820;54.604;18.226;2024-02-15T09:25:12;11.03;;;8.00;;
17404;SDS011;8820;54.604;18.226;2024-02-15T09:27:41;16.13;;;11.60;;
17404;SDS011;8820;54.604;18.226;2024-02-15T09:30:11;10.40;;;8.80;;
17404;SDS011;8820;54.604;18.226;2024-02-15T09:32:40;11.10;;;9.17;;
17404;SDS011;8820;54.604;18.226;2024-02-15T09:35:11;12.80;;;10.27;;
17404;SDS011;8820;54.604;18.226;2024-02-15T09:37:42;12.93;;;10.53;;
17404;SDS011;8820;54.604;18.226;2024-02-15T09:40:12;12.33;;;10.13;;
17404;SDS011;8820;54.604;18.226;2024-02-15T09:42:43;12.27;;;9.23;;
17404;SDS011;8820;54.604;18.226;2024-02-15T09:45:12;14.30;;;9.87;;
17404;SDS011;8820;54.604;18.226;2024-02-15T09:47:43;12.63;;;10.50;;
17404;SDS011;8820;54.604;18.226;2024-02-15T09:50:14;12.37;;;9.77;;
17404;SDS011;8820;54.604;18.226;2024-02-15T09:52:44;15.80;;;10.27;;
17404;SDS011;8820;54.604;18.226;2024-02-15T09:55:13;13.33;;;10.80;;
17404;SDS011;8820;54.604;18.226;2024-02-15T09:57:42;13.00;;;9.53;;
17404;SDS011;8820;54.604;18.226;2024-02-15T10:00:13;10.97;;;8.93;;
17404;SDS011;8820;54.604;18.226;2024-02-15T10:02:43;14.70;;;10.30;;
17404;SDS011;8820;54.604;18.226;2024-02-15T10:05:14;12.03;;;10.23;;
17404;SDS011;8820;54.604;18.226;2024-02-15T10:07:42;10.70;;;9.47;;
17404;SDS011;8820;54.604;18.226;2024-02-15T10:10:15;11.00;;;9.20;;
17404;SDS011;8820;54.604;18.226;2024-02-15T10:12:45;10.80;;;8.80;;
17404;SDS011;8820;54.604;18.226;2024-02-15T10:15:28;11.93;;;8.80;;
17404;SDS011;8820;54.604;18.226;2024-02-15T10:17:59;12.40;;;10.00;;
17404;SDS011;8820;54.604;18.226;2024-02-15T10:20:30;12.30;;;10.10;;
17404;SDS011;8820;54.604;18.226;2024-02-15T10:23:10;12.83;;;10.10;;
17404;SDS011;8820;54.604;18.226;2024-02-15T10:25:40;12.13;;;9.93;;
17404;SDS011;8820;54.604;18.226;2024-02-15T10:28:09;11.00;;;9.87;;
17404;SDS011;8820;54.604;18.226;2024-02-15T10:30:39;13.93;;;10.03;;
17404;SDS011;8820;54.604;18.226;2024-02-15T10:33:10;12.57;;;10.73;;
17404;SDS011;8820;54.604;18.226;2024-02-15T10:35:48;14.97;;;9.33;;
17404;SDS011;8820;54.604;18.226;2024-02-15T10:38:16;17.63;;;13.00;;
17404;SDS011;8820;54.604;18.226;2024-02-15T10:40:45;18.63;;;14.67;;
17404;SDS011;8820;54.604;18.226;2024-02-15T10:43:14;27.83;;;19.50;;
17404;SDS011;8820;54.604;18.226;2024-02-15T10:45:45;18.13;;;12.20;;
17404;SDS011;8820;54.604;18.226;2024-02-15T10:48:15;15.03;;;10.53;;
17404;SDS011;8820;54.604;18.226;2024-02-15T10:50:44;16.20;;;12.13;;
17404;SDS011;8820;54.604;18.226;2024-02-15T10:53:20;13.97;;;9.97;;
17404;SDS011;8820;54.604;18.226;2024-02-15T10:55:53;17.53;;;12.73;;
17404;SDS011;8820;54.604;18.226;2024-02-15T10:58:25;14.63;;;11.87;;
17404;SDS011;8820;54.604;18.226;2024-02-15T11:00:57;15.03;;;11.37;;
17404;SDS011;8820;54.604;18.226;2024-02-15T11:03:29;15.00;;;9.80;;
17404;SDS011;8820;54.604;18.226;2024-02-15T11:06:04;14.40;;;11.23;;
17404;SDS011;8820;54.604;18.226;2024-02-15T11:08:36;14.97;;;10.87;;
17404;SDS011;8820;54.604;18.226;2024-02-15T11:11:05;13.63;;;11.17;;
17404;SDS011;8820;54.604;18.226;2024-02-15T11:13:35;16.50;;;11.47;;
17404;SDS011;8820;54.604;18.226;2024-02-15T11:16:04;14.20;;;10.60;;
17404;SDS011;8820;54.604;18.226;2024-02-15T11:18:42;20.63;;;13.83;;
17404;SDS011;8820;54.604;18.226;2024-02-15T11:21:12;26.90;;;16.73;;
17404;SDS011;8820;54.604;18.226;2024-02-15T11:23:43;23.80;;;16.63;;
17404;SDS011;8820;54.604;18.226;2024-02-15T11:32:35;18.13;;;12.57;;
17404;SDS011;8820;54.604;18.226;2024-02-15T11:35:10;17.23;;;12.80;;
17404;SDS011;8820;54.604;18.226;2024-02-15T11:37:50;24.67;;;15.20;;
17404;SDS011;8820;54.604;18.226;2024-02-15T11:43:49;22.03;;;14.90;;
17404;SDS011;8820;54.604;18.226;2024-02-15T11:46:25;19.23;;;13.47;;
17404;SDS011;8820;54.604;18.226;2024-02-15T11:48:57;23.10;;;16.53;;
17404;SDS011;8820;54.604;18.226;2024-02-15T11:51:28;33.63;;;21.20;;
17404;SDS011;8820;54.604;18.226;2024-02-15T11:53:58;17.40;;;13.60;;
17404;SDS011;8820;54.604;18.226;2024-02-15T11:59:40;16.73;;;12.80;;
17404;SDS011;8820;54.604;18.226;2024-02-15T12:02:39;28.47;;;19.90;;
17404;SDS011;8820;54.604;18.226;2024-02-15T12:05:25;53.80;;;33.03;;
17404;SDS011;8820;54.604;18.226;2024-02-15T12:08:11;25.93;;;19.23;;
17404;SDS011;8820;54.604;18.226;2024-02-15T12:10:57;22.50;;;15.90;;
17404;SDS011;8820;54.604;18.226;2024-02-15T12:13:44;24.57;;;16.17;;
17404;SDS011;8820;54.604;18.226;2024-02-15T12:16:35;30.70;;;19.90;;
17404;SDS011;8820;54.604;18.226;2024-02-15T12:19:21;17.37;;;12.90;;
17404;SDS011;8820;54.604;18.226;2024-02-15T12:21:50;17.17;;;11.77;;
17404;SDS011;8820;54.604;18.226;2024-02-15T12:24:20;14.43;;;10.67;;
17404;SDS011;8820;54.604;18.226;2024-02-15T12:26:59;13.83;;;10.20;;
17404;SDS011;8820;54.604;18.226;2024-02-15T12:29:29;16.50;;;12.30;;
17404;SDS011;8820;54.604;18.226;2024-02-15T12:31:59;29.07;;;19.47;;
17404;SDS011;8820;54.604;18.226;2024-02-15T12:34:27;17.73;;;12.60;;
17404;SDS011;8820;54.604;18.226;2024-02-15T12:37:04;20.43;;;14.07;;
17404;SDS011;8820;54.604;18.226;2024-02-15T12:39:35;23.60;;;17.23;;
17404;SDS011;8820;54.604;18.226;2024-02-15T12:42:06;15.57;;;11.20;;
17404;SDS011;8820;54.604;18.226;2024-02-15T12:44:37;20.90;;;14.00;;
17404;SDS011;8820;54.604;18.226;2024-02-15T12:47:17;17.57;;;13.30;;
17404;SDS011;8820;54.604;18.226;2024-02-15T12:49:46;15.77;;;12.27;;
17404;SDS011;8820;54.604;18.226;2024-02-15T12:52:32;16.43;;;12.83;;
17404;SDS011;8820;54.604;18.226;2024-02-15T12:55:08;14.50;;;11.90;;
17404;SDS011;8820;54.604;18.226;2024-02-15T12:57:38;13.73;;;10.37;;
17404;SDS011;8820;54.604;18.226;2024-02-15T13:00:09;15.87;;;10.57;;
17404;SDS011;8820;54.604;18.226;2024-02-15T13:02:41;22.47;;;15.57;;
17404;SDS011;8820;54.604;18.226;2024-02-15T13:05:11;18.10;;;13.83;;
17404;SDS011;8820;54.604;18.226;2024-02-15T13:07:40;12.73;;;10.80;;
17404;SDS011;8820;54.604;18.226;2024-02-15T13:10:09;12.67;;;10.30;;
17404;SDS011;8820;54.604;18.226;2024-02-15T13:12:37;11.77;;;9.87;;
17404;SDS011;8820;54.604;18.226;2024-02-15T13:15:06;12.53;;;10.33;;
17404;SDS011;8820;54.604;18.226;2024-02-15T13:17:39;12.37;;;9.37;;
17404;SDS011;8820;54.604;18.226;2024-02-15T13:20:08;12.03;;;9.53;;
17404;SDS011;8820;54.604;18.226;2024-02-15T13:22:40;14.20;;;10.73;;
17404;SDS011;8820;54.604;18.226;2024-02-15T13:25:10;12.47;;;10.03;;
17404;SDS011;8820;54.604;18.226;2024-02-15T13:27:38;12.70;;;10.50;;
17404;SDS011;8820;54.604;18.226;2024-02-15T13:30:07;13.53;;;11.70;;
17404;SDS011;8820;54.604;18.226;2024-02-15T13:32:39;12.47;;;10.07;;
17404;SDS011;8820;54.604;18.226;2024-02-15T13:35:08;12.93;;;10.20;;
17404;SDS011;8820;54.604;18.226;2024-02-15T13:37:41;14.07;;;9.80;;
17404;SDS011;8820;54.604;18.226;2024-02-15T13:40:15;11.70;;;9.97;;
17404;SDS011;8820;54.604;18.226;2024-02-15T13:42:44;11.33;;;9.53;;
17404;SDS011;8820;54.604;18.226;2024-02-15T13:45:16;13.67;;;10.30;;
17404;SDS011;8820;54.604;18.226;2024-02-15T13:47:46;11.50;;;9.30;;
17404;SDS011;8820;54.604;18.226;2024-02-15T13:50:15;12.27;;;9.30;;
17404;SDS011;8820;54.604;18.226;2024-02-15T13:52:44;10.63;;;9.07;;
17404;SDS011;8820;54.604;18.226;2024-02-15T13:55:12;11.60;;;8.80;;
17404;SDS011;8820;54.604;18.226;2024-02-15T13:57:42;9.47;;;8.37;;
17404;SDS011;8820;54.604;18.226;2024-02-15T14:00:13;10.17;;;8.53;;
17404;SDS011;8820;54.604;18.226;2024-02-15T14:02:50;15.50;;;9.17;;
17404;SDS011;8820;54.604;18.226;2024-02-15T14:05:20;10.90;;;7.97;;
17404;SDS011;8820;54.604;18.226;2024-02-15T14:07:52;9.30;;;8.00;;
17404;SDS011;8820;54.604;18.226;2024-02-15T14:10:22;10.50;;;7.93;;
17404;SDS011;8820;54.604;18.226;2024-02-15T14:12:51;10.43;;;8.83;;
17404;SDS011;8820;54.604;18.226;2024-02-15T14:15:21;12.37;;;8.90;;
17404;SDS011;8820;54.604;18.226;2024-02-15T14:17:51;10.73;;;8.43;;
17404;SDS011;8820;54.604;18.226;2024-02-15T14:20:20;10.67;;;8.87;;
17404;SDS011;8820;54.604;18.226;2024-02-15T14:22:50;10.50;;;8.80;;
17404;SDS011;8820;54.604;18.226;2024-02-15T14:25:23;10.83;;;8.43;;
17404;SDS011;8820;54.604;18.226;2024-02-15T14:27:53;11.90;;;9.80;;
17404;SDS011;8820;54.604;18.226;2024-02-15T14:30:22;10.50;;;9.40;;
17404;SDS011;8820;54.604;18.226;2024-02-15T14:33:10;14.87;;;11.53;;
17404;SDS011;8820;54.604;18.226;2024-02-15T14:35:46;12.93;;;10.13;;
17404;SDS011;8820;54.604;18.226;2024-02-15T14:38:15;18.50;;;12.90;;
17404;SDS011;8820;54.604;18.226;2024-02-15T14:40:46;14.37;;;11.03;;
17404;SDS011;8820;54.604;18.226;2024-02-15T14:43:18;12.37;;;9.50;;
17404;SDS011;8820;54.604;18.226;2024-02-15T14:45:48;14.20;;;10.30;;
17404;SDS011;8820;54.604;18.226;2024-02-15T14:48:18;16.73;;;13.17;;
17404;SDS011;8820;54.604;18.226;2024-02-15T14:50:47;10.43;;;8.90;;
17404;SDS011;8820;54.604;18.226;2024-02-15T14:53:17;13.00;;;11.43;;
17404;SDS011;8820;54.604;18.226;2024-02-15T14:55:46;15.30;;;11.93;;
17404;SDS011;8820;54.604;18.226;2024-02-15T14:58:15;13.80;;;10.83;;
17404;SDS011;8820;54.604;18.226;2024-02-15T15:00:44;20.97;;;16.53;;